Phillips, WI

7:22 AM CST on March 01, 2015 (GMT -0600)
Downtown (BP station) | Change Station
CLOSE
Current Station
Personal Weather Station
Location: Phillips, WI
Elevation: 1470 ft
Nearby Weather Stations

Elev 1470 ft 45.69 °N, 90.40 °W | Updated 3 minutes ago

Light Snow
Light Snow
9.8 °F
Feels Like 10 °F
N
3.0
Wind Variable Wind from WSW
Gusts 9.0 mph

Today
High -- | Low -- °F
--% Chance of Precip.
Yesterday
High -- | Low -- °F
Precip. -- in
6:40 AM 5:48 PM
Waxing Gibbous, 85% visible
Pressure 30.15 in
Visibility 4.0 miles
Clouds Overcast 1300 ft
Windchill 10 °F
Dew Point 7 °F
Humidity 86%
Rainfall 0.00 in
Snow Depth Not available.
UV 0 out of 12
Pollen .40 out of 12
Air Quality Not available.
Flu Activity Not available.
METAR KPBH 011315Z AUTO 21006KT 4SM -SN OVC013 M12/M14 A3015 RMK AO2 T11251145

More Conditions Fewer Conditions

Pressure 30.15 in
Visibility 4.0 miles
Clouds Overcast 1300 ft
Windchill 10 °F
Dew Point 7 °F
Humidity 86%
Rainfall 0.00 in
Snow Depth Not available.
UV 0 out of 12
Pollen .40 out of 12
Air Quality Not available.
Flu Activity Not available.
METAR KPBH 011315Z AUTO 21006KT 4SM -SN OVC013 M12/M14 A3015 RMK AO2 T11251145

More Conditions Fewer Conditions

10-Day Weather Forecast

Almanac

Astronomy

Mar. 01, 2015 Rise Set
Actual Time
Civil Twilight
Nautical Twilight
Astronomical Twilight
Moon
Length of Visible Light
Length of Day
Tomorrow will be .
, % of the Moon is Illuminated

Today's Extremes

State Highs State Lows

Community

WunderPhotos

Upload Photos

1,801,380 photos uploaded!

WunderBlogs® & News

Nearby

Air Quality

  Air Quality AQ Index Pollutant
Not available.

Snow Depth

Station Depth Elevation

Earthquake Activity

City Distance Mag. Time & Date
Minimum magnitude displayed is 2.5.

Coastal Water Temperatures

Place Temperature

Nearby Weather Stations